createdAt,value
2019-01-30T00:02:30.753Z,99.90
2019-01-30T00:05:19.897Z,99.90
2019-01-30T00:08:09.218Z,99.90
2019-01-30T00:10:58.354Z,99.90
2019-01-30T00:13:47.392Z,99.90
2019-01-30T00:16:36.381Z,99.90
2019-01-30T00:19:25.370Z,99.90
2019-01-30T00:22:14.459Z,99.90
2019-01-30T00:25:04.110Z,99.90
2019-01-30T00:27:53.452Z,99.90
2019-01-30T00:30:42.477Z,99.90
2019-01-30T00:33:24.324Z,99.90
2019-01-30T00:36:06.487Z,99.90
2019-01-30T00:38:48.593Z,99.90
2019-01-30T00:41:30.099Z,99.90
2019-01-30T00:44:12.609Z,99.90
2019-01-30T00:46:54.395Z,99.90
2019-01-30T00:49:36.315Z,99.90
2019-01-30T00:52:17.869Z,99.90
2019-01-30T00:55:00.298Z,99.90
2019-01-30T00:57:42.463Z,99.90
2019-01-30T01:00:24.730Z,99.90
2019-01-30T01:03:06.670Z,99.90
2019-01-30T01:05:49.118Z,99.90
2019-01-30T01:08:31.550Z,99.90
2019-01-30T01:11:13.583Z,99.90
2019-01-30T01:13:55.735Z,99.90
2019-01-30T01:16:37.181Z,99.90
2019-01-30T01:19:18.733Z,99.90
2019-01-30T01:22:00.190Z,99.90
2019-01-30T01:24:42.356Z,99.90
2019-01-30T01:27:24.266Z,99.90
2019-01-30T01:30:06.222Z,99.90
2019-01-30T01:32:48.272Z,99.90
2019-01-30T01:35:30.597Z,99.90
2019-01-30T01:38:12.609Z,99.90
2019-01-30T01:40:54.730Z,99.90
2019-01-30T01:43:36.644Z,99.90
2019-01-30T01:46:18.163Z,99.90
2019-01-30T01:49:01.022Z,99.90
2019-01-30T01:51:42.995Z,99.90
2019-01-30T01:54:25.595Z,99.90
2019-01-30T01:57:07.338Z,99.90
2019-01-30T01:59:49.498Z,99.90
2019-01-30T02:02:31.682Z,99.90
2019-01-30T02:05:13.946Z,99.90
2019-01-30T02:07:56.115Z,99.90
2019-01-30T02:10:38.146Z,99.90
2019-01-30T02:13:20.619Z,99.90
2019-01-30T02:16:03.097Z,99.90
2019-01-30T02:18:46.107Z,99.90
2019-01-30T02:21:28.275Z,99.90
2019-01-30T02:24:10.617Z,99.90
2019-01-30T02:26:52.650Z,99.90
2019-01-30T02:29:35.093Z,99.90
2019-01-30T02:32:16.683Z,99.90
2019-01-30T02:34:58.696Z,99.90
2019-01-30T02:37:28.485Z,99.90
2019-01-30T02:40:18.135Z,99.90
2019-01-30T02:43:07.171Z,99.90
2019-01-30T02:45:56.771Z,99.90
2019-01-30T02:48:45.750Z,99.90
2019-01-30T02:51:34.784Z,99.90
2019-01-30T02:54:23.809Z,99.90
2019-01-30T02:57:12.787Z,99.90
2019-01-30T03:00:01.783Z,99.90
2019-01-30T03:02:50.738Z,99.90
2019-01-30T03:05:39.728Z,99.90
2019-01-30T03:08:28.749Z,99.90
2019-01-30T03:11:17.734Z,99.90
2019-01-30T03:14:06.757Z,99.90
2019-01-30T03:16:55.846Z,99.90
2019-01-30T03:19:44.949Z,99.90
2019-01-30T03:22:34.008Z,99.90
2019-01-30T03:25:23.921Z,99.90
2019-01-30T03:28:12.878Z,99.90
2019-01-30T03:31:17.272Z,99.90
2019-01-30T03:34:04.653Z,99.90
2019-01-30T03:36:46.684Z,99.90
2019-01-30T03:39:28.809Z,99.90
2019-01-30T03:42:10.876Z,99.90
2019-01-30T03:44:52.435Z,99.90
2019-01-30T03:47:34.886Z,99.90
2019-01-30T03:50:16.808Z,99.90
2019-01-30T03:52:59.022Z,99.90
2019-01-30T03:55:40.575Z,99.90
2019-01-30T03:58:22.616Z,99.90
2019-01-30T04:01:05.066Z,99.90
2019-01-30T04:03:47.267Z,99.90
2019-01-30T04:06:28.807Z,99.90
2019-01-30T04:09:10.855Z,99.90
2019-01-30T04:11:53.084Z,99.90
2019-01-30T04:14:35.121Z,99.90
2019-01-30T04:17:18.030Z,99.90
2019-01-30T04:19:59.615Z,99.90
2019-01-30T04:22:41.298Z,99.90
2019-01-30T04:25:22.902Z,99.90
2019-01-30T04:28:04.707Z,99.90
2019-01-30T04:30:46.479Z,99.90
2019-01-30T04:33:29.207Z,99.90
2019-01-30T04:36:10.833Z,99.90
2019-01-30T04:38:53.511Z,99.90
2019-01-30T04:41:35.288Z,99.90
2019-01-30T04:44:17.034Z,99.90
2019-01-30T04:46:59.342Z,99.90
2019-01-30T04:49:41.898Z,99.90
2019-01-30T04:52:24.291Z,99.90
2019-01-30T04:55:06.397Z,99.90
2019-01-30T04:57:49.173Z,99.90
2019-01-30T05:00:31.377Z,99.90
2019-01-30T05:03:13.789Z,99.90
2019-01-30T05:05:55.439Z,99.90
2019-01-30T05:08:37.909Z,99.90
2019-01-30T05:11:20.217Z,99.90
2019-01-30T05:14:02.103Z,99.90
2019-01-30T05:16:44.187Z,99.90
2019-01-30T05:19:25.626Z,99.90
2019-01-30T05:22:07.926Z,99.90
2019-01-30T05:24:49.683Z,99.90
2019-01-30T05:27:32.152Z,99.90
2019-01-30T05:30:14.183Z,99.90
2019-01-30T05:32:55.845Z,99.90
2019-01-30T05:35:38.326Z,99.90
2019-01-30T05:38:20.001Z,99.90
2019-01-30T05:41:02.121Z,99.90
2019-01-30T05:43:44.287Z,99.90
2019-01-30T05:46:26.502Z,99.90
2019-01-30T05:49:09.131Z,99.90
2019-01-30T05:51:51.468Z,99.90
2019-01-30T05:54:33.539Z,99.90
2019-01-30T05:57:03.346Z,99.90
2019-01-30T05:59:53.096Z,99.90
2019-01-30T06:02:42.170Z,99.90
2019-01-30T06:05:31.136Z,99.90
2019-01-30T06:08:20.181Z,99.90
2019-01-30T06:11:09.197Z,99.90
2019-01-30T06:13:58.246Z,99.90
2019-01-30T06:16:47.286Z,99.90
2019-01-30T06:19:36.278Z,99.90
2019-01-30T06:22:25.369Z,99.90
2019-01-30T06:25:14.419Z,99.90
2019-01-30T06:28:03.406Z,99.90
2019-01-30T06:30:53.338Z,99.90
2019-01-30T06:33:35.054Z,99.90
2019-01-30T06:36:17.392Z,99.90
2019-01-30T06:38:58.790Z,99.90
2019-01-30T06:41:41.094Z,99.90
2019-01-30T06:44:23.496Z,99.90
2019-01-30T06:47:05.740Z,99.90
2019-01-30T06:49:48.057Z,99.90
2019-01-30T06:52:29.625Z,99.90
2019-01-30T06:55:11.949Z,99.90
2019-01-30T06:57:54.201Z,99.90
2019-01-30T07:00:35.739Z,99.90
2019-01-30T07:03:18.187Z,99.90
2019-01-30T07:06:00.387Z,99.90
2019-01-30T07:08:43.223Z,99.90
2019-01-30T07:11:25.328Z,99.90
2019-01-30T07:14:07.112Z,99.90
2019-01-30T07:16:48.626Z,99.90
2019-01-30T07:19:31.242Z,99.90
2019-01-30T07:22:13.501Z,99.90
2019-01-30T07:24:54.966Z,99.90
2019-01-30T07:27:36.655Z,99.90
2019-01-30T07:30:18.567Z,99.90
2019-01-30T07:32:48.510Z,99.90
2019-01-30T07:35:37.555Z,99.90
2019-01-30T07:38:26.566Z,99.90
2019-01-30T07:41:15.555Z,99.90
2019-01-30T07:44:25.905Z,99.90
2019-01-30T07:47:15.040Z,99.90
2019-01-30T07:50:24.858Z,99.90
2019-01-30T07:53:14.105Z,99.90
2019-01-30T07:56:03.227Z,99.90
2019-01-30T07:58:53.243Z,99.90
2019-01-30T08:01:42.309Z,99.90
2019-01-30T08:04:31.295Z,99.90
2019-01-30T08:07:20.317Z,99.90
2019-01-30T08:10:30.047Z,99.90
2019-01-30T08:13:19.083Z,99.90
2019-01-30T08:16:08.261Z,99.90
2019-01-30T08:18:57.211Z,99.90
2019-01-30T08:25:01.858Z,99.90
2019-01-30T08:28:11.501Z,99.90
2019-01-30T08:31:00.716Z,99.90
2019-01-30T08:33:51.497Z,99.90
2019-01-30T08:36:33.608Z,99.90
2019-01-30T08:39:15.070Z,99.90
2019-01-30T08:41:57.470Z,99.90
2019-01-30T08:44:46.845Z,99.90
2019-01-30T08:47:22.839Z,99.90
2019-01-30T08:50:05.268Z,99.90
2019-01-30T08:52:46.970Z,99.90
2019-01-30T08:55:29.057Z,99.90
2019-01-30T08:58:11.391Z,99.90
2019-01-30T09:00:53.217Z,99.90
2019-01-30T09:03:35.361Z,99.90
2019-01-30T09:06:17.773Z,99.90
2019-01-30T09:09:00.432Z,99.90
2019-01-30T09:11:42.633Z,99.90
2019-01-30T09:14:24.779Z,99.90
2019-01-30T09:17:08.685Z,99.90
2019-01-30T09:19:49.947Z,99.90
2019-01-30T09:22:32.027Z,99.90
2019-01-30T09:25:14.294Z,99.90
2019-01-30T09:27:56.086Z,99.90
2019-01-30T09:30:38.029Z,99.90
2019-01-30T09:33:25.982Z,99.90
2019-01-30T09:36:03.313Z,99.90
2019-01-30T09:38:45.833Z,99.90
2019-01-30T09:41:28.097Z,99.90
2019-01-30T09:44:09.891Z,99.90
2019-01-30T09:46:51.907Z,99.90
2019-01-30T09:49:34.375Z,99.90
2019-01-30T09:52:26.461Z,99.90
2019-01-30T09:55:00.345Z,99.90
2019-01-30T09:57:41.994Z,99.90
2019-01-30T10:00:24.314Z,99.90
2019-01-30T10:03:06.799Z,99.90
2019-01-30T10:05:48.285Z,99.90
2019-01-30T10:08:30.614Z,99.90
2019-01-30T10:11:12.417Z,99.90
2019-01-30T10:13:54.260Z,99.90
2019-01-30T10:16:36.191Z,99.90
2019-01-30T10:19:17.835Z,99.90
2019-01-30T10:22:00.527Z,99.90
2019-01-30T10:24:42.602Z,99.90
2019-01-30T10:27:24.975Z,99.90
2019-01-30T10:30:06.822Z,99.90
2019-01-30T10:32:48.775Z,99.90
2019-01-30T10:35:30.254Z,99.90
2019-01-30T10:38:11.997Z,99.90
2019-01-30T10:40:53.914Z,99.90
2019-01-30T10:43:35.729Z,99.90
2019-01-30T10:46:17.649Z,99.90
2019-01-30T10:48:59.569Z,99.90
2019-01-30T10:51:41.183Z,99.90
2019-01-30T10:54:23.543Z,99.90
2019-01-30T10:57:05.593Z,99.90
2019-01-30T10:59:47.098Z,99.90
2019-01-30T11:02:29.458Z,99.90
2019-01-30T11:05:11.754Z,99.90
2019-01-30T11:07:53.553Z,99.90
2019-01-30T11:10:35.978Z,99.90
2019-01-30T11:13:18.476Z,99.90
2019-01-30T11:16:01.288Z,99.90
2019-01-30T11:18:43.647Z,99.90
2019-01-30T11:21:25.147Z,99.90
2019-01-30T11:24:07.558Z,99.90
2019-01-30T11:26:49.946Z,99.90
2019-01-30T11:29:31.446Z,99.90
2019-01-30T11:32:12.986Z,99.90
2019-01-30T11:34:55.045Z,99.90
2019-01-30T11:37:37.497Z,99.90
2019-01-30T11:40:19.131Z,99.90
2019-01-30T11:43:01.211Z,99.90
2019-01-30T11:45:42.245Z,99.90
2019-01-30T11:48:31.414Z,99.90
2019-01-30T11:51:21.993Z,99.90
2019-01-30T11:54:12.614Z,99.90
2019-01-30T11:57:01.600Z,99.90
2019-01-30T12:00:32.366Z,98.70
2019-01-30T12:03:22.979Z,99.90
2019-01-30T12:06:13.556Z,95.80
2019-01-30T12:09:25.106Z,92.20
2019-01-30T12:12:15.724Z,95.40
2019-01-30T12:15:25.924Z,89.50
2019-01-30T12:18:16.582Z,85.40
2019-01-30T12:24:15.493Z,81.40
2019-01-30T12:27:06.066Z,74.40
2019-01-30T12:30:35.858Z,85.80
2019-01-30T12:33:26.521Z,98.10
2019-01-30T12:35:57.988Z,99.70
2019-01-30T12:38:27.674Z,75.70
2019-01-30T12:40:57.329Z,77.40
2019-01-30T12:43:27.102Z,82.50
2019-01-30T12:46:16.386Z,92.70
2019-01-30T12:49:24.855Z,80.40
2019-01-30T12:52:15.510Z,95.00
2019-01-30T12:55:24.013Z,85.50
2019-01-30T12:58:13.080Z,80.00
2019-01-30T13:01:02.111Z,74.30
2019-01-30T13:03:53.725Z,79.90
2019-01-30T13:06:44.490Z,77.00
2019-01-30T13:12:49.557Z,78.20
2019-01-30T13:15:40.161Z,76.80
2019-01-30T13:18:30.779Z,77.20
2019-01-30T13:21:19.804Z,76.50
2019-01-30T13:27:24.112Z,74.10
2019-01-30T13:30:35.396Z,77.70
2019-01-30T13:33:43.872Z,72.50
2019-01-30T13:36:13.518Z,74.10
2019-01-30T13:38:43.250Z,73.20
2019-01-30T13:41:32.530Z,71.50
2019-01-30T13:44:23.135Z,73.50
2019-01-30T13:47:13.701Z,73.40
2019-01-30T13:50:25.272Z,73.20
2019-01-30T13:53:15.854Z,75.30
2019-01-30T13:56:24.549Z,76.10
2019-01-30T13:59:15.195Z,76.20
2019-01-30T14:02:05.809Z,79.00
2019-01-30T14:04:37.475Z,82.40
2019-01-30T14:07:07.150Z,79.30
2019-01-30T14:09:37.380Z,78.40
2019-01-30T14:12:26.528Z,76.70
2019-01-30T14:15:37.869Z,78.40
2019-01-30T14:18:28.612Z,76.70
2019-01-30T14:21:19.209Z,77.10
2019-01-30T14:27:17.922Z,82.30
2019-01-30T14:30:29.405Z,85.10
2019-01-30T14:33:20.044Z,88.50
2019-01-30T14:36:04.226Z,90.40
2019-01-30T14:38:34.391Z,90.40
2019-01-30T14:41:04.252Z,90.20
2019-01-30T14:43:34.666Z,91.10
2019-01-30T14:46:04.798Z,82.60
2019-01-30T14:48:34.542Z,81.50
2019-01-30T14:51:23.625Z,82.80
2019-01-30T14:54:14.199Z,83.80
2019-01-30T14:57:04.874Z,84.00
2019-01-30T15:03:24.766Z,86.50
2019-01-30T15:06:15.678Z,88.10
2019-01-30T15:09:25.567Z,91.00
2019-01-30T15:12:16.204Z,91.30
2019-01-30T15:15:27.488Z,92.00
2019-01-30T15:21:24.565Z,94.80
2019-01-30T15:23:54.319Z,95.80
2019-01-30T15:26:24.321Z,96.80
2019-01-30T15:28:54.219Z,97.20
2019-01-30T15:31:23.898Z,97.40
2019-01-30T15:34:12.998Z,98.40
2019-01-30T15:36:56.302Z,99.10
2019-01-30T15:39:25.970Z,99.40
2019-01-30T15:41:55.605Z,99.90
2019-01-30T15:44:25.333Z,99.90
2019-01-30T15:46:55.011Z,99.90
2019-01-30T15:49:24.590Z,99.90
2019-01-30T15:51:54.382Z,99.90
2019-01-30T15:54:43.637Z,99.90
2019-01-30T16:01:05.567Z,99.90
2019-01-30T16:03:56.197Z,99.90
2019-01-30T16:06:46.877Z,99.90
2019-01-30T16:09:37.462Z,99.90
2019-01-30T16:16:02.735Z,99.90
2019-01-30T16:18:54.016Z,99.90
2019-01-30T16:21:44.928Z,99.90
2019-01-30T16:24:54.957Z,99.90
2019-01-30T16:30:59.969Z,99.90
2019-01-30T16:33:50.803Z,99.90
2019-01-30T16:36:20.383Z,99.90
2019-01-30T16:38:50.004Z,99.90
2019-01-30T16:41:21.375Z,99.90
2019-01-30T16:44:11.090Z,99.90
2019-01-30T16:47:01.919Z,99.90
2019-01-30T16:49:51.025Z,99.90
2019-01-30T16:52:41.802Z,99.90
2019-01-30T16:55:30.792Z,99.90
2019-01-30T16:58:21.399Z,99.90
2019-01-30T17:01:29.834Z,99.90
2019-01-30T17:04:20.453Z,99.90
2019-01-30T17:07:09.404Z,99.90
2019-01-30T17:10:18.310Z,99.90
2019-01-30T17:13:08.995Z,99.90
2019-01-30T17:19:06.018Z,99.90
2019-01-30T17:25:03.072Z,99.90
2019-01-30T17:27:52.026Z,99.90
2019-01-30T17:31:00.352Z,99.90
2019-01-30T17:36:58.099Z,99.90
2019-01-30T17:39:39.663Z,99.90
2019-01-30T17:42:21.983Z,99.90
2019-01-30T17:45:03.969Z,99.90
2019-01-30T17:47:47.439Z,99.90
2019-01-30T17:50:29.282Z,99.90
2019-01-30T17:53:11.308Z,99.90
2019-01-30T17:55:53.754Z,99.90
2019-01-30T17:58:23.570Z,99.90
2019-01-30T18:00:54.756Z,99.90
2019-01-30T18:03:24.520Z,99.90
2019-01-30T18:05:54.143Z,99.90
2019-01-30T18:08:23.735Z,99.90
2019-01-30T18:10:53.579Z,99.90
2019-01-30T18:13:23.474Z,99.90
2019-01-30T18:16:12.515Z,99.90
2019-01-30T18:19:03.094Z,99.90
2019-01-30T18:21:54.173Z,99.90
2019-01-30T18:27:59.105Z,99.90
2019-01-30T18:30:48.089Z,99.90
2019-01-30T18:33:37.047Z,99.90
2019-01-30T18:36:19.384Z,99.90
2019-01-30T18:38:49.037Z,99.90
2019-01-30T18:41:38.166Z,99.90
2019-01-30T18:44:28.990Z,99.90
2019-01-30T18:47:18.015Z,99.90
2019-01-30T18:50:27.080Z,99.90
2019-01-30T18:56:59.507Z,99.90
2019-01-30T18:59:56.896Z,99.90
2019-01-30T19:02:47.706Z,99.90
2019-01-30T19:05:56.198Z,99.90
2019-01-30T19:08:47.051Z,99.90
2019-01-30T19:14:51.873Z,99.90
2019-01-30T19:17:42.560Z,99.90
2019-01-30T19:20:16.903Z,99.90
2019-01-30T19:22:46.868Z,99.90
2019-01-30T19:25:16.997Z,99.90
2019-01-30T19:27:46.870Z,99.90
2019-01-30T19:30:25.338Z,99.90
2019-01-30T19:32:55.018Z,99.90
2019-01-30T19:35:24.665Z,99.90
2019-01-30T19:37:54.624Z,99.90
2019-01-30T19:40:24.270Z,99.90
2019-01-30T19:42:53.953Z,99.90
2019-01-30T19:45:43.059Z,99.90
2019-01-30T19:48:33.689Z,99.90
2019-01-30T19:51:24.348Z,99.90
2019-01-30T19:53:53.939Z,99.90
2019-01-30T19:56:24.220Z,99.90
2019-01-30T19:58:53.905Z,99.90
2019-01-30T20:01:23.770Z,99.90
2019-01-30T20:03:53.456Z,99.90
2019-01-30T20:06:23.191Z,99.90
2019-01-30T20:08:52.996Z,99.90
2019-01-30T20:11:22.747Z,99.90
2019-01-30T20:13:52.789Z,99.90
2019-01-30T20:16:22.419Z,99.90
2019-01-30T20:19:11.480Z,99.90
2019-01-30T20:22:20.119Z,99.90
2019-01-30T20:25:12.557Z,99.90
2019-01-30T20:27:42.179Z,99.90
2019-01-30T20:30:14.221Z,99.90
2019-01-30T20:32:43.929Z,99.90
2019-01-30T20:35:13.753Z,99.90
2019-01-30T20:37:55.565Z,99.90
2019-01-30T20:40:38.049Z,99.90
2019-01-30T20:43:20.627Z,99.90
2019-01-30T20:46:02.519Z,99.90
2019-01-30T20:48:49.569Z,99.90
2019-01-30T20:51:28.353Z,99.90
2019-01-30T20:54:10.103Z,99.90
2019-01-30T20:56:52.356Z,99.90
2019-01-30T20:59:34.694Z,99.90
2019-01-30T21:02:16.090Z,99.90
2019-01-30T21:04:58.372Z,99.90
2019-01-30T21:07:39.942Z,99.90
2019-01-30T21:10:22.193Z,99.90
2019-01-30T21:13:04.640Z,99.90
2019-01-30T21:15:47.288Z,99.90
2019-01-30T21:18:29.337Z,99.90
2019-01-30T21:21:11.041Z,99.90
2019-01-30T21:23:52.969Z,99.90
2019-01-30T21:26:35.199Z,99.90
2019-01-30T21:29:17.019Z,99.90
2019-01-30T21:31:59.653Z,99.90
2019-01-30T21:34:41.578Z,99.90
2019-01-30T21:37:23.326Z,99.90
2019-01-30T21:40:04.936Z,99.90
2019-01-30T21:42:47.226Z,99.90
2019-01-30T21:45:29.509Z,99.90
2019-01-30T21:48:11.393Z,99.90
2019-01-30T21:50:53.433Z,99.90
2019-01-30T21:53:35.563Z,99.90
2019-01-30T21:56:05.151Z,99.90
2019-01-30T21:58:54.539Z,99.90
2019-01-30T22:01:25.874Z,99.90
2019-01-30T22:03:55.501Z,99.90
2019-01-30T22:06:25.268Z,99.90
2019-01-30T22:09:14.389Z,99.90
2019-01-30T22:12:05.158Z,99.90
2019-01-30T22:14:55.757Z,99.90
2019-01-30T22:17:46.326Z,99.90
2019-01-30T22:20:36.944Z,99.90
2019-01-30T22:23:27.540Z,99.90
2019-01-30T22:26:16.585Z,99.90
2019-01-30T22:32:21.514Z,99.90
2019-01-30T22:35:10.622Z,99.90
2019-01-30T22:37:52.587Z,99.90
2019-01-30T22:40:34.156Z,99.90
2019-01-30T22:43:16.537Z,99.90
2019-01-30T22:45:58.647Z,99.90
2019-01-30T22:48:40.891Z,99.90
2019-01-30T22:51:22.527Z,99.90
2019-01-30T22:54:04.772Z,99.90
2019-01-30T22:56:47.406Z,99.90
2019-01-30T22:59:29.182Z,99.90
2019-01-30T23:02:11.672Z,99.90
2019-01-30T23:04:53.436Z,99.90
2019-01-30T23:07:37.329Z,99.90
2019-01-30T23:10:20.766Z,99.90
2019-01-30T23:13:04.237Z,99.90
2019-01-30T23:15:47.647Z,99.90
2019-01-30T23:18:30.689Z,99.90
2019-01-30T23:21:15.610Z,99.90
2019-01-30T23:24:19.173Z,99.90
2019-01-30T23:27:02.141Z,99.90
2019-01-30T23:29:44.879Z,99.90
2019-01-30T23:32:29.128Z,99.90
2019-01-30T23:35:13.843Z,99.90
2019-01-30T23:37:55.703Z,99.90
2019-01-30T23:40:38.945Z,99.90
2019-01-30T23:43:21.994Z,99.90
2019-01-30T23:46:04.353Z,99.90
2019-01-30T23:48:48.137Z,99.90
2019-01-30T23:51:30.133Z,99.90
2019-01-30T23:54:14.693Z,99.90
2019-01-30T23:56:57.526Z,99.90
2019-01-30T23:59:42.998Z,99.90
